sensor_id;sensor_type;location;lat;lon;timestamp;P1;durP1;ratioP1;P2;durP2;ratioP2
39032;SDS011;24794;51.982;5.878;2024-02-28T00:00:52;37.72;;;18.52;;
39032;SDS011;24794;51.982;5.878;2024-02-28T00:01:53;42.55;;;19.23;;
39032;SDS011;24794;51.982;5.878;2024-02-28T00:02:53;37.55;;;19.00;;
39032;SDS011;24794;51.982;5.878;2024-02-28T00:03:54;34.40;;;18.27;;
39032;SDS011;24794;51.982;5.878;2024-02-28T00:04:54;33.90;;;18.02;;
39032;SDS011;24794;51.982;5.878;2024-02-28T00:05:55;42.83;;;19.65;;
39032;SDS011;24794;51.982;5.878;2024-02-28T00:06:55;37.58;;;18.33;;
39032;SDS011;24794;51.982;5.878;2024-02-28T00:07:56;41.70;;;19.20;;
39032;SDS011;24794;51.982;5.878;2024-02-28T00:08:57;38.85;;;18.98;;
39032;SDS011;24794;51.982;5.878;2024-02-28T00:09:57;36.40;;;18.98;;
39032;SDS011;24794;51.982;5.878;2024-02-28T00:10:58;53.03;;;20.45;;
39032;SDS011;24794;51.982;5.878;2024-02-28T00:11:58;44.45;;;19.63;;
39032;SDS011;24794;51.982;5.878;2024-02-28T00:12:59;33.80;;;18.13;;
39032;SDS011;24794;51.982;5.878;2024-02-28T00:14:00;39.22;;;19.90;;
39032;SDS011;24794;51.982;5.878;2024-02-28T00:15:01;34.65;;;18.27;;
39032;SDS011;24794;51.982;5.878;2024-02-28T00:16:02;36.28;;;18.33;;
39032;SDS011;24794;51.982;5.878;2024-02-28T00:17:03;34.35;;;17.63;;
39032;SDS011;24794;51.982;5.878;2024-02-28T00:18:05;50.80;;;20.40;;
39032;SDS011;24794;51.982;5.878;2024-02-28T00:19:05;46.72;;;19.48;;
39032;SDS011;24794;51.982;5.878;2024-02-28T00:20:06;38.67;;;19.00;;
39032;SDS011;24794;51.982;5.878;2024-02-28T00:21:08;41.30;;;18.13;;
39032;SDS011;24794;51.982;5.878;2024-02-28T00:22:09;46.03;;;20.13;;
39032;SDS011;24794;51.982;5.878;2024-02-28T00:23:10;36.05;;;19.38;;
39032;SDS011;24794;51.982;5.878;2024-02-28T00:24:10;38.40;;;17.42;;
39032;SDS011;24794;51.982;5.878;2024-02-28T00:25:11;33.67;;;16.63;;
39032;SDS011;24794;51.982;5.878;2024-02-28T00:26:13;32.20;;;17.23;;
39032;SDS011;24794;51.982;5.878;2024-02-28T00:27:14;34.38;;;17.65;;
39032;SDS011;24794;51.982;5.878;2024-02-28T00:28:14;35.03;;;18.60;;
39032;SDS011;24794;51.982;5.878;2024-02-28T00:29:15;32.63;;;17.17;;
39032;SDS011;24794;51.982;5.878;2024-02-28T00:30:16;33.35;;;17.52;;
39032;SDS011;24794;51.982;5.878;2024-02-28T00:31:17;30.63;;;16.30;;
39032;SDS011;24794;51.982;5.878;2024-02-28T00:32:18;32.05;;;17.48;;
39032;SDS011;24794;51.982;5.878;2024-02-28T00:33:19;37.22;;;17.20;;
39032;SDS011;24794;51.982;5.878;2024-02-28T00:34:19;30.77;;;16.85;;
39032;SDS011;24794;51.982;5.878;2024-02-28T00:35:20;30.13;;;16.52;;
39032;SDS011;24794;51.982;5.878;2024-02-28T00:36:20;30.38;;;17.20;;
39032;SDS011;24794;51.982;5.878;2024-02-28T00:37:21;27.58;;;15.13;;
39032;SDS011;24794;51.982;5.878;2024-02-28T00:38:21;28.02;;;14.95;;
39032;SDS011;24794;51.982;5.878;2024-02-28T00:39:22;27.85;;;14.80;;
39032;SDS011;24794;51.982;5.878;2024-02-28T00:40:23;32.65;;;16.70;;
39032;SDS011;24794;51.982;5.878;2024-02-28T00:41:25;32.83;;;16.42;;
39032;SDS011;24794;51.982;5.878;2024-02-28T00:42:25;31.25;;;15.50;;
39032;SDS011;24794;51.982;5.878;2024-02-28T00:43:27;32.35;;;15.95;;
39032;SDS011;24794;51.982;5.878;2024-02-28T00:44:27;32.95;;;17.63;;
39032;SDS011;24794;51.982;5.878;2024-02-28T00:45:28;32.42;;;17.40;;
39032;SDS011;24794;51.982;5.878;2024-02-28T00:46:28;36.97;;;18.17;;
39032;SDS011;24794;51.982;5.878;2024-02-28T00:47:29;33.58;;;17.85;;
39032;SDS011;24794;51.982;5.878;2024-02-28T00:48:29;33.25;;;17.63;;
39032;SDS011;24794;51.982;5.878;2024-02-28T00:49:30;30.58;;;16.55;;
39032;SDS011;24794;51.982;5.878;2024-02-28T00:50:31;33.92;;;16.02;;
39032;SDS011;24794;51.982;5.878;2024-02-28T00:51:31;32.47;;;15.98;;
39032;SDS011;24794;51.982;5.878;2024-02-28T00:52:32;31.13;;;15.77;;
39032;SDS011;24794;51.982;5.878;2024-02-28T00:53:32;32.10;;;15.77;;
39032;SDS011;24794;51.982;5.878;2024-02-28T00:54:33;27.88;;;15.35;;
39032;SDS011;24794;51.982;5.878;2024-02-28T00:55:34;45.25;;;20.02;;
39032;SDS011;24794;51.982;5.878;2024-02-28T00:56:34;33.92;;;18.58;;
39032;SDS011;24794;51.982;5.878;2024-02-28T00:57:35;33.15;;;17.38;;
39032;SDS011;24794;51.982;5.878;2024-02-28T00:58:35;33.42;;;17.08;;
39032;SDS011;24794;51.982;5.878;2024-02-28T00:59:36;31.77;;;16.42;;
39032;SDS011;24794;51.982;5.878;2024-02-28T01:00:36;31.17;;;16.77;;
39032;SDS011;24794;51.982;5.878;2024-02-28T01:01:37;28.60;;;15.60;;
39032;SDS011;24794;51.982;5.878;2024-02-28T01:02:37;28.90;;;15.55;;
39032;SDS011;24794;51.982;5.878;2024-02-28T01:03:39;31.45;;;15.82;;
39032;SDS011;24794;51.982;5.878;2024-02-28T01:04:41;28.48;;;15.15;;
39032;SDS011;24794;51.982;5.878;2024-02-28T01:05:41;32.40;;;15.63;;
39032;SDS011;24794;51.982;5.878;2024-02-28T01:06:42;33.90;;;17.63;;
39032;SDS011;24794;51.982;5.878;2024-02-28T01:07:42;34.33;;;16.80;;
39032;SDS011;24794;51.982;5.878;2024-02-28T01:08:43;32.17;;;16.95;;
39032;SDS011;24794;51.982;5.878;2024-02-28T01:09:44;31.92;;;16.92;;
39032;SDS011;24794;51.982;5.878;2024-02-28T01:10:45;34.33;;;18.83;;
39032;SDS011;24794;51.982;5.878;2024-02-28T01:11:46;38.92;;;20.25;;
39032;SDS011;24794;51.982;5.878;2024-02-28T01:12:46;36.13;;;18.40;;
39032;SDS011;24794;51.982;5.878;2024-02-28T01:13:47;36.58;;;17.83;;
39032;SDS011;24794;51.982;5.878;2024-02-28T01:14:47;34.92;;;18.02;;
39032;SDS011;24794;51.982;5.878;2024-02-28T01:15:48;49.92;;;23.58;;
39032;SDS011;24794;51.982;5.878;2024-02-28T01:16:48;43.05;;;21.45;;
39032;SDS011;24794;51.982;5.878;2024-02-28T01:17:49;38.55;;;20.10;;
39032;SDS011;24794;51.982;5.878;2024-02-28T01:18:50;40.30;;;19.85;;
39032;SDS011;24794;51.982;5.878;2024-02-28T01:19:50;36.38;;;18.63;;
39032;SDS011;24794;51.982;5.878;2024-02-28T01:20:51;33.70;;;18.75;;
39032;SDS011;24794;51.982;5.878;2024-02-28T01:21:53;36.03;;;17.73;;
39032;SDS011;24794;51.982;5.878;2024-02-28T01:22:54;36.10;;;18.80;;
39032;SDS011;24794;51.982;5.878;2024-02-28T01:23:54;35.60;;;18.83;;
39032;SDS011;24794;51.982;5.878;2024-02-28T01:24:55;34.58;;;17.52;;
39032;SDS011;24794;51.982;5.878;2024-02-28T01:25:55;38.35;;;19.70;;
39032;SDS011;24794;51.982;5.878;2024-02-28T01:26:56;37.35;;;19.17;;
39032;SDS011;24794;51.982;5.878;2024-02-28T01:27:56;36.80;;;19.40;;
39032;SDS011;24794;51.982;5.878;2024-02-28T01:29:00;38.80;;;19.83;;
39032;SDS011;24794;51.982;5.878;2024-02-28T01:30:00;40.67;;;19.75;;
39032;SDS011;24794;51.982;5.878;2024-02-28T01:31:01;35.70;;;19.08;;
39032;SDS011;24794;51.982;5.878;2024-02-28T01:32:02;39.10;;;20.02;;
39032;SDS011;24794;51.982;5.878;2024-02-28T01:33:02;37.33;;;18.80;;
39032;SDS011;24794;51.982;5.878;2024-02-28T01:34:03;35.85;;;17.98;;
39032;SDS011;24794;51.982;5.878;2024-02-28T01:35:04;39.40;;;20.27;;
39032;SDS011;24794;51.982;5.878;2024-02-28T01:36:06;38.70;;;19.52;;
39032;SDS011;24794;51.982;5.878;2024-02-28T01:37:07;34.55;;;18.65;;
39032;SDS011;24794;51.982;5.878;2024-02-28T01:38:07;36.65;;;19.80;;
39032;SDS011;24794;51.982;5.878;2024-02-28T01:39:08;34.42;;;18.25;;
39032;SDS011;24794;51.982;5.878;2024-02-28T01:40:09;32.38;;;17.48;;
39032;SDS011;24794;51.982;5.878;2024-02-28T01:41:10;32.47;;;17.33;;
39032;SDS011;24794;51.982;5.878;2024-02-28T01:42:10;29.95;;;16.48;;
39032;SDS011;24794;51.982;5.878;2024-02-28T01:43:11;49.85;;;25.80;;
39032;SDS011;24794;51.982;5.878;2024-02-28T01:44:12;42.30;;;22.80;;
39032;SDS011;24794;51.982;5.878;2024-02-28T01:45:13;47.10;;;23.95;;
39032;SDS011;24794;51.982;5.878;2024-02-28T01:46:20;43.05;;;23.80;;
39032;SDS011;24794;51.982;5.878;2024-02-28T01:47:25;44.25;;;22.23;;
39032;SDS011;24794;51.982;5.878;2024-02-28T01:48:26;59.20;;;25.70;;
39032;SDS011;24794;51.982;5.878;2024-02-28T01:49:27;64.53;;;26.05;;
39032;SDS011;24794;51.982;5.878;2024-02-28T01:50:27;43.05;;;23.23;;
39032;SDS011;24794;51.982;5.878;2024-02-28T01:51:28;51.67;;;24.60;;
39032;SDS011;24794;51.982;5.878;2024-02-28T01:52:29;50.92;;;24.30;;
39032;SDS011;24794;51.982;5.878;2024-02-28T01:53:30;52.92;;;24.42;;
39032;SDS011;24794;51.982;5.878;2024-02-28T01:54:30;53.30;;;24.92;;
39032;SDS011;24794;51.982;5.878;2024-02-28T01:55:32;54.65;;;24.80;;
39032;SDS011;24794;51.982;5.878;2024-02-28T01:56:33;97.40;;;27.13;;
39032;SDS011;24794;51.982;5.878;2024-02-28T01:57:34;117.30;;;27.98;;
39032;SDS011;24794;51.982;5.878;2024-02-28T01:58:37;96.25;;;25.35;;
39032;SDS011;24794;51.982;5.878;2024-02-28T01:59:38;59.47;;;25.00;;
39032;SDS011;24794;51.982;5.878;2024-02-28T02:00:40;58.10;;;25.67;;
39032;SDS011;24794;51.982;5.878;2024-02-28T02:01:41;84.95;;;25.02;;
39032;SDS011;24794;51.982;5.878;2024-02-28T02:02:42;116.15;;;26.60;;
39032;SDS011;24794;51.982;5.878;2024-02-28T02:03:43;47.47;;;22.98;;
39032;SDS011;24794;51.982;5.878;2024-02-28T02:04:44;73.47;;;24.50;;
39032;SDS011;24794;51.982;5.878;2024-02-28T02:05:44;90.85;;;27.15;;
39032;SDS011;24794;51.982;5.878;2024-02-28T02:06:45;86.38;;;25.63;;
39032;SDS011;24794;51.982;5.878;2024-02-28T02:07:48;91.18;;;25.90;;
39032;SDS011;24794;51.982;5.878;2024-02-28T02:08:49;68.63;;;25.63;;
39032;SDS011;24794;51.982;5.878;2024-02-28T02:09:51;49.88;;;22.88;;
39032;SDS011;24794;51.982;5.878;2024-02-28T02:10:52;82.47;;;26.75;;
39032;SDS011;24794;51.982;5.878;2024-02-28T02:11:53;45.40;;;22.50;;
39032;SDS011;24794;51.982;5.878;2024-02-28T02:12:53;81.57;;;23.88;;
39032;SDS011;24794;51.982;5.878;2024-02-28T02:13:54;61.40;;;22.77;;
39032;SDS011;24794;51.982;5.878;2024-02-28T02:14:54;68.03;;;23.88;;
39032;SDS011;24794;51.982;5.878;2024-02-28T02:15:55;56.88;;;23.95;;
39032;SDS011;24794;51.982;5.878;2024-02-28T02:16:55;66.32;;;23.77;;
39032;SDS011;24794;51.982;5.878;2024-02-28T02:17:56;42.58;;;21.10;;
39032;SDS011;24794;51.982;5.878;2024-02-28T02:18:56;55.00;;;21.88;;
39032;SDS011;24794;51.982;5.878;2024-02-28T02:19:57;60.42;;;20.60;;
39032;SDS011;24794;51.982;5.878;2024-02-28T02:20:59;43.00;;;20.15;;
39032;SDS011;24794;51.982;5.878;2024-02-28T02:22:04;39.35;;;18.77;;
39032;SDS011;24794;51.982;5.878;2024-02-28T02:23:08;82.75;;;21.67;;
39032;SDS011;24794;51.982;5.878;2024-02-28T02:24:08;66.65;;;21.90;;
39032;SDS011;24794;51.982;5.878;2024-02-28T02:25:09;71.22;;;22.20;;
39032;SDS011;24794;51.982;5.878;2024-02-28T02:26:09;55.63;;;21.25;;
39032;SDS011;24794;51.982;5.878;2024-02-28T02:27:10;47.13;;;21.30;;
39032;SDS011;24794;51.982;5.878;2024-02-28T02:28:10;49.92;;;21.08;;
39032;SDS011;24794;51.982;5.878;2024-02-28T02:29:11;40.33;;;19.27;;
39032;SDS011;24794;51.982;5.878;2024-02-28T02:30:13;34.65;;;18.15;;
39032;SDS011;24794;51.982;5.878;2024-02-28T02:31:13;32.55;;;16.88;;
39032;SDS011;24794;51.982;5.878;2024-02-28T02:32:14;33.75;;;16.65;;
39032;SDS011;24794;51.982;5.878;2024-02-28T02:33:15;38.75;;;18.10;;
39032;SDS011;24794;51.982;5.878;2024-02-28T02:34:15;31.83;;;16.50;;
39032;SDS011;24794;51.982;5.878;2024-02-28T02:35:16;48.20;;;19.85;;
39032;SDS011;24794;51.982;5.878;2024-02-28T02:36:17;59.78;;;20.50;;
39032;SDS011;24794;51.982;5.878;2024-02-28T02:37:17;88.28;;;21.52;;
39032;SDS011;24794;51.982;5.878;2024-02-28T02:38:18;88.75;;;22.63;;
39032;SDS011;24794;51.982;5.878;2024-02-28T02:39:19;33.97;;;18.77;;
39032;SDS011;24794;51.982;5.878;2024-02-28T02:40:19;77.07;;;23.27;;
39032;SDS011;24794;51.982;5.878;2024-02-28T02:41:20;95.20;;;23.40;;
39032;SDS011;24794;51.982;5.878;2024-02-28T02:42:20;62.63;;;20.63;;
39032;SDS011;24794;51.982;5.878;2024-02-28T02:43:21;47.03;;;19.23;;
39032;SDS011;24794;51.982;5.878;2024-02-28T02:44:21;39.15;;;18.38;;
39032;SDS011;24794;51.982;5.878;2024-02-28T02:45:22;46.58;;;18.67;;
39032;SDS011;24794;51.982;5.878;2024-02-28T02:46:22;71.68;;;19.92;;
39032;SDS011;24794;51.982;5.878;2024-02-28T02:47:23;52.22;;;19.45;;
39032;SDS011;24794;51.982;5.878;2024-02-28T02:48:23;41.67;;;18.85;;
39032;SDS011;24794;51.982;5.878;2024-02-28T02:49:24;65.70;;;18.50;;
39032;SDS011;24794;51.982;5.878;2024-02-28T02:50:24;41.53;;;17.10;;
39032;SDS011;24794;51.982;5.878;2024-02-28T02:51:25;49.17;;;16.33;;
39032;SDS011;24794;51.982;5.878;2024-02-28T02:52:26;32.80;;;16.45;;
39032;SDS011;24794;51.982;5.878;2024-02-28T02:53:26;41.03;;;18.90;;
39032;SDS011;24794;51.982;5.878;2024-02-28T02:54:27;48.42;;;17.35;;
39032;SDS011;24794;51.982;5.878;2024-02-28T02:55:27;37.83;;;17.77;;
39032;SDS011;24794;51.982;5.878;2024-02-28T02:56:28;43.92;;;17.73;;
39032;SDS011;24794;51.982;5.878;2024-02-28T02:57:28;47.30;;;19.15;;
39032;SDS011;24794;51.982;5.878;2024-02-28T02:58:30;64.85;;;17.92;;
39032;SDS011;24794;51.982;5.878;2024-02-28T02:59:31;94.43;;;19.92;;
39032;SDS011;24794;51.982;5.878;2024-02-28T03:00:31;43.45;;;18.98;;
39032;SDS011;24794;51.982;5.878;2024-02-28T03:01:32;38.67;;;17.17;;
39032;SDS011;24794;51.982;5.878;2024-02-28T03:02:33;35.88;;;16.45;;
39032;SDS011;24794;51.982;5.878;2024-02-28T03:03:33;85.80;;;19.90;;
39032;SDS011;24794;51.982;5.878;2024-02-28T03:04:34;68.45;;;19.75;;
39032;SDS011;24794;51.982;5.878;2024-02-28T03:05:35;80.25;;;22.15;;
39032;SDS011;24794;51.982;5.878;2024-02-28T03:06:35;30.42;;;18.17;;
39032;SDS011;24794;51.982;5.878;2024-02-28T03:07:36;46.55;;;18.67;;
39032;SDS011;24794;51.982;5.878;2024-02-28T03:08:36;38.72;;;17.05;;
39032;SDS011;24794;51.982;5.878;2024-02-28T03:09:37;50.00;;;17.70;;
39032;SDS011;24794;51.982;5.878;2024-02-28T03:10:37;62.00;;;17.45;;
39032;SDS011;24794;51.982;5.878;2024-02-28T03:11:39;42.20;;;15.85;;
39032;SDS011;24794;51.982;5.878;2024-02-28T03:12:39;33.47;;;15.30;;
39032;SDS011;24794;51.982;5.878;2024-02-28T03:13:41;40.40;;;15.80;;
39032;SDS011;24794;51.982;5.878;2024-02-28T03:14:41;34.75;;;15.40;;
39032;SDS011;24794;51.982;5.878;2024-02-28T03:15:42;77.72;;;19.67;;
39032;SDS011;24794;51.982;5.878;2024-02-28T03:16:42;58.30;;;17.70;;
39032;SDS011;24794;51.982;5.878;2024-02-28T03:17:43;41.10;;;17.60;;
39032;SDS011;24794;51.982;5.878;2024-02-28T03:18:44;112.30;;;20.60;;
39032;SDS011;24794;51.982;5.878;2024-02-28T03:19:44;34.65;;;18.25;;
39032;SDS011;24794;51.982;5.878;2024-02-28T03:20:45;35.72;;;18.35;;
39032;SDS011;24794;51.982;5.878;2024-02-28T03:21:45;42.65;;;17.20;;
39032;SDS011;24794;51.982;5.878;2024-02-28T03:22:46;37.88;;;16.65;;
39032;SDS011;24794;51.982;5.878;2024-02-28T03:23:46;38.97;;;17.30;;
39032;SDS011;24794;51.982;5.878;2024-02-28T03:24:47;49.80;;;16.80;;
39032;SDS011;24794;51.982;5.878;2024-02-28T03:25:48;33.03;;;16.42;;
39032;SDS011;24794;51.982;5.878;2024-02-28T03:26:49;36.55;;;16.38;;
39032;SDS011;24794;51.982;5.878;2024-02-28T03:27:49;30.90;;;16.20;;
39032;SDS011;24794;51.982;5.878;2024-02-28T03:28:50;31.20;;;17.05;;
39032;SDS011;24794;51.982;5.878;2024-02-28T03:29:51;30.45;;;16.33;;
39032;SDS011;24794;51.982;5.878;2024-02-28T03:30:51;32.70;;;16.00;;
39032;SDS011;24794;51.982;5.878;2024-02-28T03:31:52;31.17;;;15.68;;
39032;SDS011;24794;51.982;5.878;2024-02-28T03:32:52;37.53;;;15.88;;
39032;SDS011;24794;51.982;5.878;2024-02-28T03:33:53;30.27;;;16.83;;
39032;SDS011;24794;51.982;5.878;2024-02-28T03:34:53;34.38;;;17.33;;
39032;SDS011;24794;51.982;5.878;2024-02-28T03:35:54;40.03;;;18.52;;
39032;SDS011;24794;51.982;5.878;2024-02-28T03:36:54;36.75;;;16.85;;
39032;SDS011;24794;51.982;5.878;2024-02-28T03:37:55;30.13;;;16.38;;
39032;SDS011;24794;51.982;5.878;2024-02-28T03:38:55;35.08;;;17.05;;
39032;SDS011;24794;51.982;5.878;2024-02-28T03:39:56;33.55;;;16.52;;
39032;SDS011;24794;51.982;5.878;2024-02-28T03:40:56;29.10;;;15.40;;
39032;SDS011;24794;51.982;5.878;2024-02-28T03:41:57;27.85;;;14.40;;
39032;SDS011;24794;51.982;5.878;2024-02-28T03:42:57;27.88;;;14.57;;
39032;SDS011;24794;51.982;5.878;2024-02-28T03:43:59;25.20;;;14.10;;
39032;SDS011;24794;51.982;5.878;2024-02-28T03:44:59;27.42;;;14.02;;
39032;SDS011;24794;51.982;5.878;2024-02-28T03:46:00;34.90;;;17.42;;
39032;SDS011;24794;51.982;5.878;2024-02-28T03:47:01;30.40;;;16.30;;
39032;SDS011;24794;51.982;5.878;2024-02-28T03:48:02;29.65;;;15.63;;
39032;SDS011;24794;51.982;5.878;2024-02-28T03:49:03;30.75;;;15.60;;
39032;SDS011;24794;51.982;5.878;2024-02-28T03:50:03;28.58;;;14.88;;
39032;SDS011;24794;51.982;5.878;2024-02-28T03:51:04;27.58;;;15.32;;
39032;SDS011;24794;51.982;5.878;2024-02-28T03:52:05;33.00;;;17.00;;
39032;SDS011;24794;51.982;5.878;2024-02-28T03:53:06;34.03;;;16.98;;
39032;SDS011;24794;51.982;5.878;2024-02-28T03:54:06;34.70;;;17.00;;
39032;SDS011;24794;51.982;5.878;2024-02-28T03:55:07;32.88;;;17.10;;
39032;SDS011;24794;51.982;5.878;2024-02-28T03:56:08;32.38;;;18.13;;
39032;SDS011;24794;51.982;5.878;2024-02-28T03:57:09;34.58;;;17.45;;
39032;SDS011;24794;51.982;5.878;2024-02-28T03:58:10;27.02;;;15.13;;
39032;SDS011;24794;51.982;5.878;2024-02-28T03:59:11;27.88;;;16.25;;
39032;SDS011;24794;51.982;5.878;2024-02-28T04:00:11;28.17;;;16.08;;
39032;SDS011;24794;51.982;5.878;2024-02-28T04:01:13;26.42;;;15.02;;
39032;SDS011;24794;51.982;5.878;2024-02-28T04:02:13;26.52;;;15.25;;
39032;SDS011;24794;51.982;5.878;2024-02-28T04:03:14;27.95;;;14.88;;
39032;SDS011;24794;51.982;5.878;2024-02-28T04:04:14;26.23;;;14.98;;
39032;SDS011;24794;51.982;5.878;2024-02-28T04:05:15;31.33;;;14.82;;
39032;SDS011;24794;51.982;5.878;2024-02-28T04:06:17;27.40;;;14.77;;
39032;SDS011;24794;51.982;5.878;2024-02-28T04:07:17;25.67;;;13.77;;
39032;SDS011;24794;51.982;5.878;2024-02-28T04:08:18;26.17;;;14.88;;
39032;SDS011;24794;51.982;5.878;2024-02-28T04:09:18;34.50;;;17.90;;
39032;SDS011;24794;51.982;5.878;2024-02-28T04:10:20;29.58;;;16.45;;
39032;SDS011;24794;51.982;5.878;2024-02-28T04:11:21;26.90;;;15.63;;
39032;SDS011;24794;51.982;5.878;2024-02-28T04:12:21;28.00;;;15.55;;
39032;SDS011;24794;51.982;5.878;2024-02-28T04:13:22;26.08;;;14.70;;
39032;SDS011;24794;51.982;5.878;2024-02-28T04:14:22;34.47;;;14.90;;
39032;SDS011;24794;51.982;5.878;2024-02-28T04:15:23;26.70;;;14.98;;
39032;SDS011;24794;51.982;5.878;2024-02-28T04:16:25;27.35;;;14.18;;
39032;SDS011;24794;51.982;5.878;2024-02-28T04:17:26;39.22;;;15.05;;
39032;SDS011;24794;51.982;5.878;2024-02-28T04:18:26;26.88;;;14.82;;
39032;SDS011;24794;51.982;5.878;2024-02-28T04:19:27;27.55;;;14.57;;
39032;SDS011;24794;51.982;5.878;2024-02-28T04:20:28;30.95;;;13.98;;
39032;SDS011;24794;51.982;5.878;2024-02-28T04:21:28;26.38;;;13.02;;
39032;SDS011;24794;51.982;5.878;2024-02-28T04:22:29;26.67;;;15.27;;
39032;SDS011;24794;51.982;5.878;2024-02-28T04:23:29;25.77;;;15.07;;
39032;SDS011;24794;51.982;5.878;2024-02-28T04:24:30;28.55;;;15.20;;
39032;SDS011;24794;51.982;5.878;2024-02-28T04:25:32;28.30;;;14.82;;
39032;SDS011;24794;51.982;5.878;2024-02-28T04:26:32;23.80;;;14.40;;
39032;SDS011;24794;51.982;5.878;2024-02-28T04:27:33;31.88;;;16.10;;
39032;SDS011;24794;51.982;5.878;2024-02-28T04:28:34;24.23;;;14.88;;
39032;SDS011;24794;51.982;5.878;2024-02-28T04:29:34;22.60;;;14.00;;
39032;SDS011;24794;51.982;5.878;2024-02-28T04:30:35;27.80;;;15.23;;
39032;SDS011;24794;51.982;5.878;2024-02-28T04:31:37;31.38;;;16.08;;
39032;SDS011;24794;51.982;5.878;2024-02-28T04:32:38;25.98;;;15.35;;
39032;SDS011;24794;51.982;5.878;2024-02-28T04:33:38;28.48;;;17.33;;
39032;SDS011;24794;51.982;5.878;2024-02-28T04:34:39;26.27;;;16.33;;
39032;SDS011;24794;51.982;5.878;2024-02-28T04:35:39;36.40;;;17.63;;
39032;SDS011;24794;51.982;5.878;2024-02-28T04:36:40;38.90;;;17.80;;
39032;SDS011;24794;51.982;5.878;2024-02-28T04:37:40;27.10;;;16.25;;
39032;SDS011;24794;51.982;5.878;2024-02-28T04:38:41;27.33;;;15.68;;
39032;SDS011;24794;51.982;5.878;2024-02-28T04:39:42;26.90;;;15.63;;
39032;SDS011;24794;51.982;5.878;2024-02-28T04:40:42;28.08;;;16.40;;
39032;SDS011;24794;51.982;5.878;2024-02-28T04:41:43;26.60;;;15.32;;
39032;SDS011;24794;51.982;5.878;2024-02-28T04:42:43;29.17;;;15.80;;
39032;SDS011;24794;51.982;5.878;2024-02-28T04:43:44;30.17;;;15.20;;
39032;SDS011;24794;51.982;5.878;2024-02-28T04:44:44;31.70;;;16.52;;
39032;SDS011;24794;51.982;5.878;2024-02-28T04:45:45;28.05;;;15.02;;
39032;SDS011;24794;51.982;5.878;2024-02-28T04:46:45;29.33;;;16.02;;
39032;SDS011;24794;51.982;5.878;2024-02-28T04:47:46;31.08;;;16.10;;
39032;SDS011;24794;51.982;5.878;2024-02-28T04:48:46;28.98;;;16.05;;
39032;SDS011;24794;51.982;5.878;2024-02-28T04:49:47;26.85;;;15.02;;
39032;SDS011;24794;51.982;5.878;2024-02-28T04:50:48;23.23;;;14.85;;
39032;SDS011;24794;51.982;5.878;2024-02-28T04:51:48;21.95;;;13.15;;
39032;SDS011;24794;51.982;5.878;2024-02-28T04:52:49;23.77;;;14.20;;
39032;SDS011;24794;51.982;5.878;2024-02-28T04:53:49;25.38;;;15.07;;
39032;SDS011;24794;51.982;5.878;2024-02-28T04:54:50;27.80;;;13.77;;
39032;SDS011;24794;51.982;5.878;2024-02-28T04:55:51;34.03;;;14.68;;
39032;SDS011;24794;51.982;5.878;2024-02-28T04:56:52;23.83;;;14.45;;
39032;SDS011;24794;51.982;5.878;2024-02-28T04:57:52;24.40;;;15.38;;
39032;SDS011;24794;51.982;5.878;2024-02-28T04:58:53;24.17;;;14.20;;
39032;SDS011;24794;51.982;5.878;2024-02-28T04:59:53;25.42;;;16.13;;
39032;SDS011;24794;51.982;5.878;2024-02-28T05:00:54;23.55;;;14.85;;
39032;SDS011;24794;51.982;5.878;2024-02-28T05:01:54;24.08;;;14.75;;
39032;SDS011;24794;51.982;5.878;2024-02-28T05:02:55;26.95;;;15.15;;
39032;SDS011;24794;51.982;5.878;2024-02-28T05:03:55;22.38;;;14.00;;
39032;SDS011;24794;51.982;5.878;2024-02-28T05:04:56;25.88;;;14.57;;
39032;SDS011;24794;51.982;5.878;2024-02-28T05:05:58;24.27;;;14.27;;
39032;SDS011;24794;51.982;5.878;2024-02-28T05:06:59;23.77;;;14.10;;
39032;SDS011;24794;51.982;5.878;2024-02-28T05:08:00;34.13;;;16.25;;
39032;SDS011;24794;51.982;5.878;2024-02-28T05:09:00;26.35;;;15.73;;
39032;SDS011;24794;51.982;5.878;2024-02-28T05:10:01;29.27;;;16.00;;
39032;SDS011;24794;51.982;5.878;2024-02-28T05:11:02;25.98;;;16.00;;
39032;SDS011;24794;51.982;5.878;2024-02-28T05:12:02;27.65;;;15.88;;
39032;SDS011;24794;51.982;5.878;2024-02-28T05:13:03;21.50;;;14.25;;
39032;SDS011;24794;51.982;5.878;2024-02-28T05:14:04;22.42;;;13.95;;
39032;SDS011;24794;51.982;5.878;2024-02-28T05:15:04;24.30;;;14.38;;
39032;SDS011;24794;51.982;5.878;2024-02-28T05:16:11;21.95;;;13.50;;
39032;SDS011;24794;51.982;5.878;2024-02-28T05:17:15;22.42;;;14.07;;
39032;SDS011;24794;51.982;5.878;2024-02-28T05:18:16;22.25;;;14.43;;
39032;SDS011;24794;51.982;5.878;2024-02-28T05:19:17;51.55;;;17.88;;
39032;SDS011;24794;51.982;5.878;2024-02-28T05:20:18;33.65;;;17.83;;
39032;SDS011;24794;51.982;5.878;2024-02-28T05:21:18;30.23;;;16.85;;
39032;SDS011;24794;51.982;5.878;2024-02-28T05:22:19;24.45;;;14.80;;
39032;SDS011;24794;51.982;5.878;2024-02-28T05:23:20;32.45;;;16.42;;
39032;SDS011;24794;51.982;5.878;2024-02-28T05:24:20;25.30;;;15.30;;
39032;SDS011;24794;51.982;5.878;2024-02-28T05:25:22;24.10;;;15.45;;
39032;SDS011;24794;51.982;5.878;2024-02-28T05:26:22;24.40;;;15.18;;
39032;SDS011;24794;51.982;5.878;2024-02-28T05:27:23;23.27;;;15.05;;
39032;SDS011;24794;51.982;5.878;2024-02-28T05:28:23;24.15;;;15.02;;
39032;SDS011;24794;51.982;5.878;2024-02-28T05:29:24;24.30;;;14.82;;
39032;SDS011;24794;51.982;5.878;2024-02-28T05:30:26;26.50;;;15.70;;
39032;SDS011;24794;51.982;5.878;2024-02-28T05:31:26;22.35;;;14.32;;
39032;SDS011;24794;51.982;5.878;2024-02-28T05:32:28;26.52;;;14.80;;
39032;SDS011;24794;51.982;5.878;2024-02-28T05:33:28;28.60;;;17.02;;
39032;SDS011;24794;51.982;5.878;2024-02-28T05:34:29;37.53;;;18.77;;
39032;SDS011;24794;51.982;5.878;2024-02-28T05:35:30;26.10;;;15.85;;
39032;SDS011;24794;51.982;5.878;2024-02-28T05:36:31;24.27;;;15.73;;
39032;SDS011;24794;51.982;5.878;2024-02-28T05:37:32;24.20;;;15.40;;
39032;SDS011;24794;51.982;5.878;2024-02-28T05:38:32;28.45;;;17.20;;
39032;SDS011;24794;51.982;5.878;2024-02-28T05:39:33;27.38;;;16.63;;
39032;SDS011;24794;51.982;5.878;2024-02-28T05:40:34;28.73;;;17.38;;
39032;SDS011;24794;51.982;5.878;2024-02-28T05:41:35;23.83;;;14.73;;
39032;SDS011;24794;51.982;5.878;2024-02-28T05:42:35;22.98;;;13.88;;
39032;SDS011;24794;51.982;5.878;2024-02-28T05:43:39;22.17;;;14.05;;
39032;SDS011;24794;51.982;5.878;2024-02-28T05:44:40;21.13;;;13.60;;
39032;SDS011;24794;51.982;5.878;2024-02-28T05:45:41;22.67;;;14.52;;
39032;SDS011;24794;51.982;5.878;2024-02-28T05:46:41;22.45;;;14.25;;
39032;SDS011;24794;51.982;5.878;2024-02-28T05:47:42;21.70;;;13.57;;
39032;SDS011;24794;51.982;5.878;2024-02-28T05:48:43;23.52;;;14.02;;
39032;SDS011;24794;51.982;5.878;2024-02-28T05:49:44;22.27;;;14.07;;
39032;SDS011;24794;51.982;5.878;2024-02-28T05:50:45;23.95;;;15.55;;
39032;SDS011;24794;51.982;5.878;2024-02-28T05:51:45;24.70;;;15.07;;
39032;SDS011;24794;51.982;5.878;2024-02-28T05:52:46;21.65;;;14.10;;
39032;SDS011;24794;51.982;5.878;2024-02-28T05:53:47;23.67;;;13.27;;
39032;SDS011;24794;51.982;5.878;2024-02-28T05:54:48;24.63;;;14.88;;
39032;SDS011;24794;51.982;5.878;2024-02-28T05:55:48;21.40;;;13.60;;